sensor_id;sensor_type;location;lat;lon;timestamp;P1;durP1;ratioP1;P2;durP2;ratioP2
14007;SDS011;61651;45.508;12.232;2023-07-08T00:03:02;9.05;;;8.10;;
14007;SDS011;61651;45.508;12.232;2023-07-08T00:06:04;9.45;;;8.50;;
14007;SDS011;61651;45.508;12.232;2023-07-08T00:09:13;9.00;;;8.10;;
14007;SDS011;61651;45.508;12.232;2023-07-08T00:12:16;9.27;;;8.38;;
14007;SDS011;61651;45.508;12.232;2023-07-08T00:15:18;8.00;;;7.30;;
14007;SDS011;61651;45.508;12.232;2023-07-08T00:18:23;8.75;;;7.90;;
14007;SDS011;61651;45.508;12.232;2023-07-08T00:21:25;10.25;;;8.10;;
14007;SDS011;61651;45.508;12.232;2023-07-08T00:24:28;9.70;;;8.43;;
14007;SDS011;61651;45.508;12.232;2023-07-08T00:27:30;8.98;;;8.13;;
14007;SDS011;61651;45.508;12.232;2023-07-08T00:30:32;8.23;;;7.40;;
14007;SDS011;61651;45.508;12.232;2023-07-08T00:33:34;8.98;;;7.82;;
14007;SDS011;61651;45.508;12.232;2023-07-08T00:36:36;8.65;;;7.85;;
14007;SDS011;61651;45.508;12.232;2023-07-08T00:39:40;7.80;;;7.00;;
14007;SDS011;61651;45.508;12.232;2023-07-08T00:42:42;9.02;;;7.70;;
14007;SDS011;61651;45.508;12.232;2023-07-08T00:45:46;8.25;;;7.05;;
14007;SDS011;61651;45.508;12.232;2023-07-08T00:48:51;7.30;;;6.60;;
14007;SDS011;61651;45.508;12.232;2023-07-08T00:52:14;7.90;;;7.10;;
14007;SDS011;61651;45.508;12.232;2023-07-08T00:55:23;8.40;;;7.10;;
14007;SDS011;61651;45.508;12.232;2023-07-08T00:58:26;7.72;;;6.90;;
14007;SDS011;61651;45.508;12.232;2023-07-08T01:01:32;11.27;;;7.28;;
14007;SDS011;61651;45.508;12.232;2023-07-08T01:04:39;8.00;;;7.20;;
14007;SDS011;61651;45.508;12.232;2023-07-08T01:07:47;8.10;;;7.25;;
14007;SDS011;61651;45.508;12.232;2023-07-08T01:10:54;7.50;;;6.80;;
14007;SDS011;61651;45.508;12.232;2023-07-08T01:14:01;8.38;;;6.88;;
14007;SDS011;61651;45.508;12.232;2023-07-08T01:17:05;10.75;;;7.40;;
14007;SDS011;61651;45.508;12.232;2023-07-08T01:20:07;8.38;;;7.25;;
14007;SDS011;61651;45.508;12.232;2023-07-08T01:23:14;9.63;;;7.35;;
14007;SDS011;61651;45.508;12.232;2023-07-08T01:26:16;7.43;;;6.72;;
14007;SDS011;61651;45.508;12.232;2023-07-08T01:29:19;9.10;;;7.10;;
14007;SDS011;61651;45.508;12.232;2023-07-08T01:32:21;7.38;;;6.68;;
14007;SDS011;61651;45.508;12.232;2023-07-08T01:35:23;8.70;;;7.20;;
14007;SDS011;61651;45.508;12.232;2023-07-08T01:38:26;7.93;;;7.07;;
14007;SDS011;61651;45.508;12.232;2023-07-08T01:41:29;8.10;;;7.28;;
14007;SDS011;61651;45.508;12.232;2023-07-08T01:44:33;7.82;;;7.13;;
14007;SDS011;61651;45.508;12.232;2023-07-08T01:47:36;7.78;;;7.00;;
14007;SDS011;61651;45.508;12.232;2023-07-08T01:50:44;8.93;;;8.07;;
14007;SDS011;61651;45.508;12.232;2023-07-08T01:53:51;8.00;;;6.82;;
14007;SDS011;61651;45.508;12.232;2023-07-08T01:56:56;8.50;;;7.22;;
14007;SDS011;61651;45.508;12.232;2023-07-08T01:59:58;7.90;;;7.10;;
14007;SDS011;61651;45.508;12.232;2023-07-08T02:03:00;8.60;;;7.72;;
14007;SDS011;61651;45.508;12.232;2023-07-08T02:06:02;8.85;;;7.63;;
14007;SDS011;61651;45.508;12.232;2023-07-08T02:09:06;7.63;;;6.93;;
14007;SDS011;61651;45.508;12.232;2023-07-08T02:12:08;7.40;;;6.65;;
14007;SDS011;61651;45.508;12.232;2023-07-08T02:15:10;8.13;;;7.00;;
14007;SDS011;61651;45.508;12.232;2023-07-08T02:18:12;7.55;;;6.85;;
14007;SDS011;61651;45.508;12.232;2023-07-08T02:21:14;7.28;;;6.68;;
14007;SDS011;61651;45.508;12.232;2023-07-08T02:24:19;8.70;;;6.88;;
14007;SDS011;61651;45.508;12.232;2023-07-08T02:27:22;8.07;;;7.28;;
14007;SDS011;61651;45.508;12.232;2023-07-08T02:30:24;7.80;;;7.00;;
14007;SDS011;61651;45.508;12.232;2023-07-08T02:33:26;9.05;;;7.20;;
14007;SDS011;61651;45.508;12.232;2023-07-08T02:36:33;7.47;;;6.78;;
14007;SDS011;61651;45.508;12.232;2023-07-08T02:39:36;7.40;;;6.68;;
14007;SDS011;61651;45.508;12.232;2023-07-08T02:42:38;8.57;;;7.65;;
14007;SDS011;61651;45.508;12.232;2023-07-08T02:45:40;10.68;;;7.28;;
14007;SDS011;61651;45.508;12.232;2023-07-08T02:48:42;8.77;;;7.05;;
14007;SDS011;61651;45.508;12.232;2023-07-08T02:51:44;7.50;;;6.82;;
14007;SDS011;61651;45.508;12.232;2023-07-08T02:54:47;8.57;;;6.93;;
14007;SDS011;61651;45.508;12.232;2023-07-08T02:57:49;9.80;;;7.45;;
14007;SDS011;61651;45.508;12.232;2023-07-08T03:00:52;7.43;;;6.82;;
14007;SDS011;61651;45.508;12.232;2023-07-08T03:03:54;7.57;;;6.72;;
14007;SDS011;61651;45.508;12.232;2023-07-08T03:06:58;7.88;;;7.07;;
14007;SDS011;61651;45.508;12.232;2023-07-08T03:10:01;7.60;;;6.90;;
14007;SDS011;61651;45.508;12.232;2023-07-08T03:13:04;9.00;;;6.95;;
14007;SDS011;61651;45.508;12.232;2023-07-08T03:16:06;7.47;;;6.75;;
14007;SDS011;61651;45.508;12.232;2023-07-08T03:19:12;8.35;;;7.55;;
14007;SDS011;61651;45.508;12.232;2023-07-08T03:22:15;7.95;;;7.15;;
14007;SDS011;61651;45.508;12.232;2023-07-08T03:25:18;9.35;;;7.07;;
14007;SDS011;61651;45.508;12.232;2023-07-08T03:28:20;7.47;;;6.78;;
14007;SDS011;61651;45.508;12.232;2023-07-08T03:31:22;8.57;;;6.82;;
14007;SDS011;61651;45.508;12.232;2023-07-08T03:34:24;9.80;;;7.13;;
14007;SDS011;61651;45.508;12.232;2023-07-08T03:37:26;7.63;;;6.93;;
14007;SDS011;61651;45.508;12.232;2023-07-08T03:40:30;9.27;;;8.18;;
14007;SDS011;61651;45.508;12.232;2023-07-08T03:43:32;9.93;;;8.00;;
14007;SDS011;61651;45.508;12.232;2023-07-08T03:46:34;10.45;;;9.45;;
14007;SDS011;61651;45.508;12.232;2023-07-08T03:49:36;10.30;;;9.30;;
14007;SDS011;61651;45.508;12.232;2023-07-08T03:52:38;9.95;;;8.95;;
14007;SDS011;61651;45.508;12.232;2023-07-08T03:55:41;11.90;;;10.70;;
14007;SDS011;61651;45.508;12.232;2023-07-08T03:58:43;10.60;;;9.55;;
14007;SDS011;61651;45.508;12.232;2023-07-08T04:01:45;10.68;;;9.68;;
14007;SDS011;61651;45.508;12.232;2023-07-08T04:04:48;10.77;;;9.65;;
14007;SDS011;61651;45.508;12.232;2023-07-08T04:07:50;10.65;;;9.55;;
14007;SDS011;61651;45.508;12.232;2023-07-08T04:10:55;11.27;;;9.60;;
14007;SDS011;61651;45.508;12.232;2023-07-08T04:13:57;10.05;;;9.05;;
14007;SDS011;61651;45.508;12.232;2023-07-08T04:16:59;10.15;;;8.75;;
14007;SDS011;61651;45.508;12.232;2023-07-08T04:20:02;10.52;;;9.43;;
14007;SDS011;61651;45.508;12.232;2023-07-08T04:23:04;10.20;;;9.10;;
14007;SDS011;61651;45.508;12.232;2023-07-08T04:26:08;10.07;;;9.13;;
14007;SDS011;61651;45.508;12.232;2023-07-08T04:29:11;9.70;;;8.70;;
14007;SDS011;61651;45.508;12.232;2023-07-08T04:32:13;12.98;;;9.15;;
14007;SDS011;61651;45.508;12.232;2023-07-08T04:35:15;9.63;;;8.20;;
14007;SDS011;61651;45.508;12.232;2023-07-08T04:38:19;11.80;;;8.82;;
14007;SDS011;61651;45.508;12.232;2023-07-08T04:41:23;9.32;;;8.43;;
14007;SDS011;61651;45.508;12.232;2023-07-08T04:44:26;9.27;;;8.02;;
14007;SDS011;61651;45.508;12.232;2023-07-08T04:47:28;9.32;;;7.90;;
14007;SDS011;61651;45.508;12.232;2023-07-08T04:50:30;9.05;;;7.90;;
14007;SDS011;61651;45.508;12.232;2023-07-08T04:53:32;9.00;;;8.10;;
14007;SDS011;61651;45.508;12.232;2023-07-08T04:56:36;8.70;;;7.80;;
14007;SDS011;61651;45.508;12.232;2023-07-08T04:59:39;9.27;;;8.32;;
14007;SDS011;61651;45.508;12.232;2023-07-08T05:02:41;9.60;;;8.07;;
14007;SDS011;61651;45.508;12.232;2023-07-08T05:05:43;9.30;;;8.07;;
14007;SDS011;61651;45.508;12.232;2023-07-08T05:08:45;8.65;;;7.78;;
14007;SDS011;61651;45.508;12.232;2023-07-08T05:11:49;9.70;;;7.60;;
14007;SDS011;61651;45.508;12.232;2023-07-08T05:14:51;9.07;;;7.90;;
14007;SDS011;61651;45.508;12.232;2023-07-08T05:17:53;8.00;;;7.20;;
14007;SDS011;61651;45.508;12.232;2023-07-08T05:20:55;7.95;;;7.25;;
14007;SDS011;61651;45.508;12.232;2023-07-08T05:23:57;7.53;;;6.78;;
14007;SDS011;61651;45.508;12.232;2023-07-08T05:27:00;9.27;;;8.30;;
14007;SDS011;61651;45.508;12.232;2023-07-08T05:30:03;8.10;;;7.22;;
14007;SDS011;61651;45.508;12.232;2023-07-08T05:33:07;8.27;;;7.47;;
14007;SDS011;61651;45.508;12.232;2023-07-08T05:36:09;8.60;;;7.38;;
14007;SDS011;61651;45.508;12.232;2023-07-08T05:39:11;9.30;;;7.80;;
14007;SDS011;61651;45.508;12.232;2023-07-08T05:42:14;8.27;;;7.35;;
14007;SDS011;61651;45.508;12.232;2023-07-08T05:45:16;9.32;;;7.68;;
14007;SDS011;61651;45.508;12.232;2023-07-08T05:48:18;9.23;;;7.80;;
14007;SDS011;61651;45.508;12.232;2023-07-08T05:51:20;9.43;;;7.45;;
14007;SDS011;61651;45.508;12.232;2023-07-08T05:54:23;7.78;;;7.07;;
14007;SDS011;61651;45.508;12.232;2023-07-08T05:57:26;8.68;;;7.47;;
14007;SDS011;61651;45.508;12.232;2023-07-08T06:00:28;8.32;;;7.53;;
14007;SDS011;61651;45.508;12.232;2023-07-08T06:03:30;9.18;;;7.50;;
14007;SDS011;61651;45.508;12.232;2023-07-08T06:06:32;8.60;;;7.28;;
14007;SDS011;61651;45.508;12.232;2023-07-08T06:09:34;9.40;;;7.43;;
14007;SDS011;61651;45.508;12.232;2023-07-08T06:12:38;9.93;;;7.82;;
14007;SDS011;61651;45.508;12.232;2023-07-08T06:15:40;8.23;;;7.43;;
14007;SDS011;61651;45.508;12.232;2023-07-08T06:18:43;8.88;;;8.00;;
14007;SDS011;61651;45.508;12.232;2023-07-08T06:21:45;8.85;;;7.95;;
14007;SDS011;61651;45.508;12.232;2023-07-08T06:24:47;10.52;;;8.68;;
14007;SDS011;61651;45.508;12.232;2023-07-08T06:27:50;11.18;;;8.20;;
14007;SDS011;61651;45.508;12.232;2023-07-08T06:30:52;9.02;;;8.10;;
14007;SDS011;61651;45.508;12.232;2023-07-08T06:33:54;8.32;;;7.07;;
14007;SDS011;61651;45.508;12.232;2023-07-08T06:36:56;10.30;;;7.65;;
14007;SDS011;61651;45.508;12.232;2023-07-08T06:39:58;7.93;;;7.13;;
14007;SDS011;61651;45.508;12.232;2023-07-08T06:43:02;8.30;;;7.55;;
14007;SDS011;61651;45.508;12.232;2023-07-08T06:46:04;8.85;;;7.95;;
14007;SDS011;61651;45.508;12.232;2023-07-08T06:49:07;7.72;;;7.00;;
14007;SDS011;61651;45.508;12.232;2023-07-08T06:52:09;7.97;;;7.18;;
14007;SDS011;61651;45.508;12.232;2023-07-08T06:55:11;10.55;;;7.88;;
14007;SDS011;61651;45.508;12.232;2023-07-08T06:58:15;11.00;;;7.50;;
14007;SDS011;61651;45.508;12.232;2023-07-08T07:01:17;9.85;;;7.75;;
14007;SDS011;61651;45.508;12.232;2023-07-08T07:04:19;8.40;;;7.22;;
14007;SDS011;61651;45.508;12.232;2023-07-08T07:07:21;8.57;;;7.47;;
14007;SDS011;61651;45.508;12.232;2023-07-08T07:10:24;8.57;;;7.57;;
14007;SDS011;61651;45.508;12.232;2023-07-08T07:13:27;10.55;;;7.57;;
14007;SDS011;61651;45.508;12.232;2023-07-08T07:16:29;10.07;;;7.80;;
14007;SDS011;61651;45.508;12.232;2023-07-08T07:19:31;10.50;;;7.43;;
14007;SDS011;61651;45.508;12.232;2023-07-08T07:22:34;7.75;;;6.93;;
14007;SDS011;61651;45.508;12.232;2023-07-08T07:25:36;8.45;;;7.63;;
14007;SDS011;61651;45.508;12.232;2023-07-08T07:28:40;8.65;;;7.68;;
14007;SDS011;61651;45.508;12.232;2023-07-08T07:31:42;7.78;;;7.07;;
14007;SDS011;61651;45.508;12.232;2023-07-08T07:34:45;8.60;;;6.85;;
14007;SDS011;61651;45.508;12.232;2023-07-08T07:37:48;7.45;;;6.68;;
14007;SDS011;61651;45.508;12.232;2023-07-08T07:40:52;8.43;;;7.63;;
14007;SDS011;61651;45.508;12.232;2023-07-08T07:43:56;8.35;;;7.40;;
14007;SDS011;61651;45.508;12.232;2023-07-08T07:46:58;7.38;;;6.68;;
14007;SDS011;61651;45.508;12.232;2023-07-08T07:50:00;7.88;;;7.07;;
14007;SDS011;61651;45.508;12.232;2023-07-08T07:53:02;8.10;;;7.30;;
14007;SDS011;61651;45.508;12.232;2023-07-08T07:56:04;8.98;;;7.85;;
14007;SDS011;61651;45.508;12.232;2023-07-08T07:59:09;9.23;;;8.15;;
14007;SDS011;61651;45.508;12.232;2023-07-08T08:02:12;8.40;;;7.60;;
14007;SDS011;61651;45.508;12.232;2023-07-08T08:05:14;8.60;;;7.53;;
14007;SDS011;61651;45.508;12.232;2023-07-08T08:08:16;9.40;;;8.52;;
14007;SDS011;61651;45.508;12.232;2023-07-08T08:11:18;8.57;;;7.55;;
14007;SDS011;61651;45.508;12.232;2023-07-08T08:14:23;7.97;;;7.18;;
14007;SDS011;61651;45.508;12.232;2023-07-08T08:17:25;7.40;;;6.60;;
14007;SDS011;61651;45.508;12.232;2023-07-08T08:20:27;7.43;;;6.65;;
14007;SDS011;61651;45.508;12.232;2023-07-08T08:23:29;7.93;;;6.93;;
14007;SDS011;61651;45.508;12.232;2023-07-08T08:26:31;8.13;;;6.88;;
14007;SDS011;61651;45.508;12.232;2023-07-08T08:29:35;6.78;;;5.65;;
14007;SDS011;61651;45.508;12.232;2023-07-08T08:32:37;6.88;;;6.22;;
14007;SDS011;61651;45.508;12.232;2023-07-08T08:35:39;6.30;;;5.63;;
14007;SDS011;61651;45.508;12.232;2023-07-08T08:38:42;6.80;;;6.20;;
14007;SDS011;61651;45.508;12.232;2023-07-08T08:41:44;6.80;;;6.07;;
14007;SDS011;61651;45.508;12.232;2023-07-08T08:44:48;6.63;;;5.93;;
14007;SDS011;61651;45.508;12.232;2023-07-08T08:47:50;7.40;;;6.70;;
14007;SDS011;61651;45.508;12.232;2023-07-08T08:50:56;7.20;;;6.55;;
14007;SDS011;61651;45.508;12.232;2023-07-08T08:54:00;6.82;;;6.13;;
14007;SDS011;61651;45.508;12.232;2023-07-08T08:57:05;7.35;;;6.05;;
14007;SDS011;61651;45.508;12.232;2023-07-08T09:00:16;6.05;;;5.45;;
14007;SDS011;61651;45.508;12.232;2023-07-08T09:03:30;6.95;;;6.35;;
14007;SDS011;61651;45.508;12.232;2023-07-08T09:06:37;6.95;;;6.25;;
14007;SDS011;61651;45.508;12.232;2023-07-08T09:09:41;9.63;;;6.50;;
14007;SDS011;61651;45.508;12.232;2023-07-08T09:12:49;7.65;;;6.70;;
14007;SDS011;61651;45.508;12.232;2023-07-08T09:15:57;6.90;;;6.30;;
14007;SDS011;61651;45.508;12.232;2023-07-08T09:19:09;6.88;;;6.15;;
14007;SDS011;61651;45.508;12.232;2023-07-08T09:22:15;8.80;;;6.38;;
14007;SDS011;61651;45.508;12.232;2023-07-08T09:25:24;7.45;;;6.75;;
14007;SDS011;61651;45.508;12.232;2023-07-08T09:28:36;7.40;;;6.70;;
14007;SDS011;61651;45.508;12.232;2023-07-08T09:31:41;7.40;;;6.43;;
14007;SDS011;61651;45.508;12.232;2023-07-08T09:34:45;7.22;;;6.55;;
14007;SDS011;61651;45.508;12.232;2023-07-08T09:37:50;7.70;;;6.55;;
14007;SDS011;61651;45.508;12.232;2023-07-08T09:40:53;7.78;;;7.18;;
14007;SDS011;61651;45.508;12.232;2023-07-08T09:47:22;8.70;;;7.43;;
14007;SDS011;61651;45.508;12.232;2023-07-08T09:50:27;7.57;;;6.88;;
14007;SDS011;61651;45.508;12.232;2023-07-08T09:53:31;7.68;;;6.97;;
14007;SDS011;61651;45.508;12.232;2023-07-08T09:56:35;7.95;;;7.25;;
14007;SDS011;61651;45.508;12.232;2023-07-08T09:59:43;8.43;;;7.68;;
14007;SDS011;61651;45.508;12.232;2023-07-08T10:02:51;9.48;;;6.88;;
14007;SDS011;61651;45.508;12.232;2023-07-08T10:05:56;7.50;;;6.65;;
14007;SDS011;61651;45.508;12.232;2023-07-08T10:09:02;7.70;;;5.95;;
14007;SDS011;61651;45.508;12.232;2023-07-08T10:12:06;6.07;;;5.50;;
14007;SDS011;61651;45.508;12.232;2023-07-08T10:15:15;7.18;;;6.47;;
14007;SDS011;61651;45.508;12.232;2023-07-08T10:18:25;7.40;;;6.70;;
14007;SDS011;61651;45.508;12.232;2023-07-08T10:21:31;10.98;;;6.72;;
14007;SDS011;61651;45.508;12.232;2023-07-08T10:24:41;7.38;;;6.50;;
14007;SDS011;61651;45.508;12.232;2023-07-08T10:27:54;11.10;;;6.28;;
14007;SDS011;61651;45.508;12.232;2023-07-08T10:31:07;6.88;;;6.25;;
14007;SDS011;61651;45.508;12.232;2023-07-08T10:34:22;8.77;;;6.45;;
14007;SDS011;61651;45.508;12.232;2023-07-08T10:37:37;6.95;;;6.38;;
14007;SDS011;61651;45.508;12.232;2023-07-08T10:40:47;7.57;;;6.88;;
14007;SDS011;61651;45.508;12.232;2023-07-08T10:43:57;7.25;;;6.55;;
14007;SDS011;61651;45.508;12.232;2023-07-08T10:47:08;7.28;;;6.60;;
14007;SDS011;61651;45.508;12.232;2023-07-08T10:50:28;6.53;;;5.93;;
14007;SDS011;61651;45.508;12.232;2023-07-08T10:53:47;7.07;;;6.40;;
14007;SDS011;61651;45.508;12.232;2023-07-08T10:57:01;7.82;;;6.45;;
14007;SDS011;61651;45.508;12.232;2023-07-08T11:00:16;7.68;;;6.15;;
14007;SDS011;61651;45.508;12.232;2023-07-08T11:07:12;7.55;;;6.60;;
14007;SDS011;61651;45.508;12.232;2023-07-08T11:10:20;7.10;;;6.50;;
14007;SDS011;61651;45.508;12.232;2023-07-08T11:13:28;6.53;;;5.70;;
14007;SDS011;61651;45.508;12.232;2023-07-08T11:16:33;7.13;;;5.85;;
14007;SDS011;61651;45.508;12.232;2023-07-08T11:19:38;7.57;;;6.20;;
14007;SDS011;61651;45.508;12.232;2023-07-08T11:22:47;6.80;;;5.78;;
14007;SDS011;61651;45.508;12.232;2023-07-08T11:25:54;6.85;;;6.20;;
14007;SDS011;61651;45.508;12.232;2023-07-08T11:29:04;6.90;;;6.15;;
14007;SDS011;61651;45.508;12.232;2023-07-08T11:32:16;10.18;;;8.25;;
14007;SDS011;61651;45.508;12.232;2023-07-08T11:35:23;8.43;;;6.85;;
14007;SDS011;61651;45.508;12.232;2023-07-08T11:38:32;9.00;;;7.05;;
14007;SDS011;61651;45.508;12.232;2023-07-08T11:41:35;10.70;;;6.38;;
14007;SDS011;61651;45.508;12.232;2023-07-08T11:44:40;6.78;;;6.13;;
14007;SDS011;61651;45.508;12.232;2023-07-08T11:47:48;6.78;;;6.18;;
14007;SDS011;61651;45.508;12.232;2023-07-08T11:50:50;6.80;;;6.18;;
14007;SDS011;61651;45.508;12.232;2023-07-08T11:54:00;6.40;;;5.80;;
14007;SDS011;61651;45.508;12.232;2023-07-08T11:57:16;6.35;;;5.70;;
14007;SDS011;61651;45.508;12.232;2023-07-08T12:00:22;6.75;;;5.68;;
14007;SDS011;61651;45.508;12.232;2023-07-08T12:03:29;7.13;;;6.43;;
14007;SDS011;61651;45.508;12.232;2023-07-08T12:06:43;7.70;;;6.38;;
14007;SDS011;61651;45.508;12.232;2023-07-08T12:09:59;6.88;;;6.28;;
14007;SDS011;61651;45.508;12.232;2023-07-08T12:13:09;7.35;;;5.50;;
14007;SDS011;61651;45.508;12.232;2023-07-08T12:16:14;8.80;;;5.95;;
14007;SDS011;61651;45.508;12.232;2023-07-08T12:19:17;6.50;;;5.90;;
14007;SDS011;61651;45.508;12.232;2023-07-08T12:22:22;7.68;;;6.70;;
14007;SDS011;61651;45.508;12.232;2023-07-08T12:25:31;6.93;;;6.13;;
14007;SDS011;61651;45.508;12.232;2023-07-08T12:28:36;6.65;;;5.55;;
14007;SDS011;61651;45.508;12.232;2023-07-08T12:31:38;5.88;;;5.38;;
14007;SDS011;61651;45.508;12.232;2023-07-08T12:34:42;6.75;;;6.15;;
14007;SDS011;61651;45.508;12.232;2023-07-08T12:37:45;7.72;;;6.75;;
14007;SDS011;61651;45.508;12.232;2023-07-08T12:40:49;6.20;;;5.60;;
14007;SDS011;61651;45.508;12.232;2023-07-08T12:43:51;6.60;;;6.05;;
14007;SDS011;61651;45.508;12.232;2023-07-08T12:46:54;6.43;;;5.83;;
14007;SDS011;61651;45.508;12.232;2023-07-08T12:49:57;6.13;;;5.43;;
14007;SDS011;61651;45.508;12.232;2023-07-08T12:52:59;5.75;;;5.13;;
14007;SDS011;61651;45.508;12.232;2023-07-08T12:56:05;5.93;;;5.43;;
14007;SDS011;61651;45.508;12.232;2023-07-08T12:59:08;6.95;;;6.25;;
14007;SDS011;61651;45.508;12.232;2023-07-08T13:02:15;7.32;;;5.88;;
14007;SDS011;61651;45.508;12.232;2023-07-08T13:05:21;6.53;;;5.40;;
14007;SDS011;61651;45.508;12.232;2023-07-08T13:08:24;7.20;;;5.53;;
14007;SDS011;61651;45.508;12.232;2023-07-08T13:11:32;8.30;;;5.57;;
14007;SDS011;61651;45.508;12.232;2023-07-08T13:14:34;8.55;;;5.88;;
14007;SDS011;61651;45.508;12.232;2023-07-08T13:17:36;6.45;;;5.80;;
14007;SDS011;61651;45.508;12.232;2023-07-08T13:20:38;7.10;;;5.70;;
14007;SDS011;61651;45.508;12.232;2023-07-08T13:23:41;5.78;;;5.28;;
14007;SDS011;61651;45.508;12.232;2023-07-08T13:26:46;6.60;;;6.00;;
14007;SDS011;61651;45.508;12.232;2023-07-08T13:29:50;6.65;;;5.47;;
14007;SDS011;61651;45.508;12.232;2023-07-08T13:32:53;5.93;;;5.30;;
14007;SDS011;61651;45.508;12.232;2023-07-08T13:35:55;6.82;;;6.22;;
14007;SDS011;61651;45.508;12.232;2023-07-08T13:38:57;9.77;;;6.00;;
14007;SDS011;61651;45.508;12.232;2023-07-08T13:42:02;6.88;;;6.13;;
14007;SDS011;61651;45.508;12.232;2023-07-08T13:45:12;6.30;;;5.70;;
14007;SDS011;61651;45.508;12.232;2023-07-08T13:48:18;7.88;;;5.93;;
14007;SDS011;61651;45.508;12.232;2023-07-08T13:51:23;6.15;;;5.55;;
14007;SDS011;61651;45.508;12.232;2023-07-08T13:54:33;6.10;;;5.60;;
14007;SDS011;61651;45.508;12.232;2023-07-08T13:57:39;6.57;;;5.97;;
14007;SDS011;61651;45.508;12.232;2023-07-08T14:00:41;6.22;;;5.70;;
14007;SDS011;61651;45.508;12.232;2023-07-08T14:03:43;10.98;;;5.82;;
14007;SDS011;61651;45.508;12.232;2023-07-08T14:06:46;6.55;;;5.95;;
14007;SDS011;61651;45.508;12.232;2023-07-08T14:12:10;8.40;;;6.10;;
14007;SDS011;61651;45.508;12.232;2023-07-08T14:15:12;6.47;;;5.38;;
14007;SDS011;61651;45.508;12.232;2023-07-08T14:18:14;6.03;;;5.53;;
14007;SDS011;61651;45.508;12.232;2023-07-08T14:21:16;6.82;;;6.13;;
14007;SDS011;61651;45.508;12.232;2023-07-08T14:24:19;6.13;;;5.47;;
14007;SDS011;61651;45.508;12.232;2023-07-08T14:27:22;16.63;;;6.93;;
14007;SDS011;61651;45.508;12.232;2023-07-08T14:30:24;6.68;;;6.07;;
14007;SDS011;61651;45.508;12.232;2023-07-08T14:33:26;7.03;;;6.32;;
14007;SDS011;61651;45.508;12.232;2023-07-08T14:36:28;6.35;;;5.85;;
14007;SDS011;61651;45.508;12.232;2023-07-08T14:39:30;11.05;;;6.10;;
14007;SDS011;61651;45.508;12.232;2023-07-08T14:42:34;6.53;;;5.82;;
14007;SDS011;61651;45.508;12.232;2023-07-08T14:45:37;6.72;;;5.30;;
14007;SDS011;61651;45.508;12.232;2023-07-08T14:48:42;5.97;;;5.47;;
14007;SDS011;61651;45.508;12.232;2023-07-08T14:51:44;8.13;;;5.80;;
14007;SDS011;61651;45.508;12.232;2023-07-08T14:54:46;7.35;;;6.07;;
14007;SDS011;61651;45.508;12.232;2023-07-08T14:57:50;6.80;;;6.30;;
14007;SDS011;61651;45.508;12.232;2023-07-08T15:00:54;6.40;;;5.80;;
14007;SDS011;61651;45.508;12.232;2023-07-08T15:03:57;8.20;;;5.47;;
14007;SDS011;61651;45.508;12.232;2023-07-08T15:07:00;6.85;;;5.30;;
14007;SDS011;61651;45.508;12.232;2023-07-08T15:10:02;8.55;;;5.40;;
14007;SDS011;61651;45.508;12.232;2023-07-08T15:13:08;6.97;;;5.15;;
14007;SDS011;61651;45.508;12.232;2023-07-08T15:16:12;6.72;;;5.72;;
14007;SDS011;61651;45.508;12.232;2023-07-08T15:19:15;5.85;;;5.22;;
14007;SDS011;61651;45.508;12.232;2023-07-08T15:22:18;5.68;;;5.22;;
14007;SDS011;61651;45.508;12.232;2023-07-08T15:25:20;5.97;;;5.47;;
14007;SDS011;61651;45.508;12.232;2023-07-08T15:28:33;6.70;;;6.00;;
14007;SDS011;61651;45.508;12.232;2023-07-08T15:31:41;6.30;;;5.05;;
14007;SDS011;61651;45.508;12.232;2023-07-08T15:34:44;5.32;;;4.88;;
14007;SDS011;61651;45.508;12.232;2023-07-08T15:37:46;6.97;;;5.00;;
14007;SDS011;61651;45.508;12.232;2023-07-08T15:40:49;4.90;;;4.40;;
14007;SDS011;61651;45.508;12.232;2023-07-08T15:43:54;7.35;;;5.22;;
14007;SDS011;61651;45.508;12.232;2023-07-08T15:46:57;5.20;;;4.80;;
14007;SDS011;61651;45.508;12.232;2023-07-08T15:50:04;5.40;;;4.95;;
14007;SDS011;61651;45.508;12.232;2023-07-08T15:53:14;5.47;;;4.97;;
14007;SDS011;61651;45.508;12.232;2023-07-08T15:56:17;6.05;;;5.45;;
14007;SDS011;61651;45.508;12.232;2023-07-08T15:59:23;5.53;;;5.10;;
14007;SDS011;61651;45.508;12.232;2023-07-08T16:02:29;5.03;;;4.63;;
14007;SDS011;61651;45.508;12.232;2023-07-08T16:05:35;5.22;;;4.82;;
14007;SDS011;61651;45.508;12.232;2023-07-08T16:08:37;5.45;;;4.85;;
14007;SDS011;61651;45.508;12.232;2023-07-08T16:11:39;5.85;;;5.25;;
14007;SDS011;61651;45.508;12.232;2023-07-08T16:14:43;7.03;;;5.47;;
14007;SDS011;61651;45.508;12.232;2023-07-08T16:17:45;7.10;;;5.13;;
14007;SDS011;61651;45.508;12.232;2023-07-08T16:20:47;5.03;;;4.57;;
14007;SDS011;61651;45.508;12.232;2023-07-08T16:23:49;5.70;;;5.07;;
14007;SDS011;61651;45.508;12.232;2023-07-08T16:26:52;5.35;;;4.90;;
14007;SDS011;61651;45.508;12.232;2023-07-08T16:29:55;5.47;;;5.03;;
14007;SDS011;61651;45.508;12.232;2023-07-08T16:32:57;5.55;;;4.97;;
14007;SDS011;61651;45.508;12.232;2023-07-08T16:35:59;5.57;;;5.18;;
14007;SDS011;61651;45.508;12.232;2023-07-08T16:39:02;5.18;;;4.63;;
14007;SDS011;61651;45.508;12.232;2023-07-08T16:42:04;5.25;;;4.72;;
14007;SDS011;61651;45.508;12.232;2023-07-08T16:45:13;5.43;;;4.93;;
14007;SDS011;61651;45.508;12.232;2023-07-08T16:48:17;5.30;;;4.80;;
14007;SDS011;61651;45.508;12.232;2023-07-08T16:51:21;5.03;;;4.53;;
14007;SDS011;61651;45.508;12.232;2023-07-08T16:54:25;5.45;;;4.95;;
14007;SDS011;61651;45.508;12.232;2023-07-08T16:57:27;5.50;;;5.00;;
14007;SDS011;61651;45.508;12.232;2023-07-08T17:00:31;5.22;;;4.72;;
14007;SDS011;61651;45.508;12.232;2023-07-08T17:03:34;5.55;;;5.05;;
14007;SDS011;61651;45.508;12.232;2023-07-08T17:06:37;6.30;;;5.32;;
14007;SDS011;61651;45.508;12.232;2023-07-08T17:09:39;6.18;;;5.22;;
14007;SDS011;61651;45.508;12.232;2023-07-08T17:12:41;5.78;;;5.18;;
14007;SDS011;61651;45.508;12.232;2023-07-08T17:15:45;5.63;;;5.13;;
14007;SDS011;61651;45.508;12.232;2023-07-08T17:18:48;5.32;;;4.82;;
14007;SDS011;61651;45.508;12.232;2023-07-08T17:21:55;10.05;;;5.78;;
14007;SDS011;61651;45.508;12.232;2023-07-08T17:24:57;7.47;;;4.85;;
14007;SDS011;61651;45.508;12.232;2023-07-08T17:27:59;9.57;;;7.78;;
14007;SDS011;61651;45.508;12.232;2023-07-08T17:31:03;6.30;;;5.70;;
14007;SDS011;61651;45.508;12.232;2023-07-08T17:34:07;7.63;;;6.40;;
14007;SDS011;61651;45.508;12.232;2023-07-08T17:37:14;16.50;;;7.93;;
14007;SDS011;61651;45.508;12.232;2023-07-08T17:40:17;6.35;;;5.38;;
14007;SDS011;61651;45.508;12.232;2023-07-08T17:43:21;5.57;;;4.55;;
14007;SDS011;61651;45.508;12.232;2023-07-08T17:46:24;7.50;;;5.03;;
14007;SDS011;61651;45.508;12.232;2023-07-08T17:49:28;5.45;;;4.95;;
14007;SDS011;61651;45.508;12.232;2023-07-08T17:52:31;4.55;;;4.15;;
14007;SDS011;61651;45.508;12.232;2023-07-08T17:55:33;7.18;;;6.47;;
14007;SDS011;61651;45.508;12.232;2023-07-08T17:58:35;6.70;;;4.68;;
14007;SDS011;61651;45.508;12.232;2023-07-08T18:01:38;5.80;;;4.07;;
14007;SDS011;61651;45.508;12.232;2023-07-08T18:04:41;4.97;;;4.57;;
14007;SDS011;61651;45.508;12.232;2023-07-08T18:07:43;5.18;;;4.78;;
14007;SDS011;61651;45.508;12.232;2023-07-08T18:10:46;7.13;;;5.45;;
14007;SDS011;61651;45.508;12.232;2023-07-08T18:13:49;6.25;;;4.78;;
14007;SDS011;61651;45.508;12.232;2023-07-08T18:16:54;5.20;;;4.70;;
14007;SDS011;61651;45.508;12.232;2023-07-08T18:19:56;8.55;;;6.80;;
14007;SDS011;61651;45.508;12.232;2023-07-08T18:22:59;10.93;;;8.63;;